createdAt,value
2022-09-23T00:01:08.692Z,100930.62
2022-09-23T00:03:37.283Z,100931.53
2022-09-23T00:06:08.560Z,100929.78
2022-09-23T00:08:35.257Z,100933.31
2022-09-23T00:11:10.198Z,100927.16
2022-09-23T00:13:37.055Z,100923.72
2022-09-23T00:16:08.477Z,100931.66
2022-09-23T00:18:35.065Z,100929.00
2022-09-23T00:21:11.782Z,100928.13
2022-09-23T00:23:38.748Z,100918.44
2022-09-23T00:26:05.957Z,100921.09
2022-09-23T00:28:33.110Z,100922.00
2022-09-23T00:31:07.090Z,100915.84
2022-09-23T00:33:33.701Z,100929.09
2022-09-23T00:36:01.943Z,100925.66
2022-09-23T00:38:28.776Z,100914.16
2022-09-23T00:40:55.360Z,100915.91
2022-09-23T00:43:37.845Z,100913.31
2022-09-23T00:46:04.551Z,100905.34
2022-09-23T00:48:31.176Z,100911.59
2022-09-23T00:50:57.901Z,100908.94
2022-09-23T00:53:24.480Z,100907.22
2022-09-23T00:55:53.621Z,100903.69
2022-09-23T00:58:23.436Z,100905.50
2022-09-23T01:00:50.117Z,100907.28
2022-09-23T01:03:16.694Z,100909.06
2022-09-23T01:05:43.286Z,100906.41
2022-09-23T01:08:12.900Z,100910.81
2022-09-23T01:10:50.968Z,100915.25
2022-09-23T01:13:56.235Z,100906.44
2022-09-23T01:16:31.910Z,100910.03
2022-09-23T01:19:21.602Z,100915.37
2022-09-23T01:21:57.391Z,100919.81
2022-09-23T01:24:42.170Z,100914.53
2022-09-23T01:27:36.543Z,100915.41
2022-09-23T01:30:05.816Z,100912.75
2022-09-23T01:32:42.323Z,100904.81
2022-09-23T01:35:35.298Z,100911.03
2022-09-23T01:38:16.449Z,100908.47
2022-09-23T01:40:50.910Z,100910.25
2022-09-23T01:43:33.873Z,100909.38
2022-09-23T01:46:00.515Z,100906.75
2022-09-23T01:48:35.673Z,100904.97
2022-09-23T01:51:08.222Z,100906.78
2022-09-23T01:53:48.939Z,100909.41
2022-09-23T01:56:22.798Z,100909.47
2022-09-23T01:59:13.658Z,100901.53
2022-09-23T02:01:53.859Z,100900.72
2022-09-23T02:04:28.230Z,100902.47
2022-09-23T02:06:56.338Z,100897.19
2022-09-23T02:09:25.034Z,100906.06
2022-09-23T02:11:52.498Z,100895.47
2022-09-23T02:14:44.481Z,100893.75
2022-09-23T02:17:13.063Z,100898.19
2022-09-23T02:19:47.857Z,100899.03
2022-09-23T02:22:22.259Z,100904.41
2022-09-23T02:24:49.209Z,100895.59
2022-09-23T02:27:45.082Z,100897.34
2022-09-23T02:30:14.027Z,100900.94
2022-09-23T02:33:04.154Z,100893.91
2022-09-23T02:35:48.950Z,100904.50
2022-09-23T02:38:27.212Z,100899.28
2022-09-23T02:40:56.671Z,100893.12
2022-09-23T02:43:33.884Z,100901.09
2022-09-23T02:46:03.048Z,100895.78
2022-09-23T02:48:34.766Z,100895.78
2022-09-23T02:51:03.772Z,100890.56
2022-09-23T02:53:33.789Z,100897.56
2022-09-23T02:56:01.424Z,100902.94
2022-09-23T02:58:27.992Z,100900.31
2022-09-23T03:01:16.421Z,100902.94
2022-09-23T03:04:19.906Z,100896.81
2022-09-23T03:07:02.806Z,100906.53
2022-09-23T03:09:32.438Z,100906.53
2022-09-23T03:12:38.292Z,100905.69
2022-09-23T03:15:26.019Z,100901.31
2022-09-23T03:18:01.649Z,100904.00
2022-09-23T03:20:38.298Z,100904.00
2022-09-23T03:23:07.511Z,100893.47
2022-09-23T03:25:36.476Z,100900.53
2022-09-23T03:28:03.067Z,100903.19
2022-09-23T03:30:29.885Z,100902.31
2022-09-23T03:32:56.440Z,100903.25
2022-09-23T03:35:24.199Z,100898.88
2022-09-23T03:37:56.845Z,100901.53
2022-09-23T03:40:30.138Z,100906.81
2022-09-23T03:42:57.550Z,100901.53
2022-09-23T03:45:27.516Z,100903.34
2022-09-23T03:47:54.194Z,100904.25
2022-09-23T03:50:21.352Z,100907.78
2022-09-23T03:52:50.446Z,100902.53
2022-09-23T03:55:17.741Z,100902.53
2022-09-23T03:57:45.164Z,100903.44
2022-09-23T04:00:12.461Z,100899.03
2022-09-23T04:02:39.216Z,100900.78
2022-09-23T04:05:06.619Z,100906.97
2022-09-23T04:07:33.173Z,100902.59
2022-09-23T04:09:59.702Z,100907.91
2022-09-23T04:12:26.388Z,100905.25
2022-09-23T04:14:52.933Z,100903.53
2022-09-23T04:17:19.644Z,100899.16
2022-09-23T04:19:46.428Z,100907.09
2022-09-23T04:22:12.984Z,100900.06
2022-09-23T04:24:39.534Z,100905.38
2022-09-23T04:27:06.109Z,100906.25
2022-09-23T04:29:32.727Z,100913.34
2022-09-23T04:31:59.541Z,100907.19
2022-09-23T04:34:26.152Z,100905.41
2022-09-23T04:36:52.683Z,100914.25
2022-09-23T04:39:19.558Z,100909.91
2022-09-23T04:41:46.230Z,100914.31
2022-09-23T04:44:13.319Z,100917.88
2022-09-23T04:46:40.704Z,100915.22
2022-09-23T04:49:07.561Z,100919.66
2022-09-23T04:51:34.308Z,100912.63
2022-09-23T04:54:00.859Z,100917.94
2022-09-23T04:56:28.939Z,100912.69
2022-09-23T04:58:58.278Z,100916.19
2022-09-23T05:01:26.847Z,100919.78
2022-09-23T05:03:55.376Z,100926.78
2022-09-23T05:06:22.046Z,100926.84
2022-09-23T05:08:50.380Z,100918.91
2022-09-23T05:11:17.979Z,100922.41
2022-09-23T05:13:48.057Z,100926.84
2022-09-23T05:16:15.818Z,100925.94
2022-09-23T05:18:42.850Z,100936.53
2022-09-23T05:21:12.574Z,100940.97
2022-09-23T05:23:39.970Z,100933.94
2022-09-23T05:26:08.270Z,100941.87
2022-09-23T05:28:38.747Z,100949.81
2022-09-23T05:31:05.927Z,100950.75
2022-09-23T05:33:35.711Z,100954.31
2022-09-23T05:36:05.408Z,100949.03
2022-09-23T05:38:32.113Z,100948.16
2022-09-23T05:40:59.541Z,100950.81
2022-09-23T05:43:26.382Z,100958.75
2022-09-23T05:45:53.032Z,100953.47
2022-09-23T05:48:19.615Z,100957.88
2022-09-23T05:50:52.564Z,100955.25
2022-09-23T05:53:19.342Z,100950.84
2022-09-23T05:55:46.217Z,100951.75
2022-09-23T05:58:12.874Z,100955.28
2022-09-23T06:00:40.976Z,100951.75
2022-09-23T06:03:14.393Z,100952.63
2022-09-23T06:05:41.048Z,100952.63
2022-09-23T06:08:08.132Z,100951.75
2022-09-23T06:10:39.230Z,100949.97
2022-09-23T06:13:06.133Z,100948.25
2022-09-23T06:15:32.852Z,100947.34
2022-09-23T06:18:02.282Z,100950.03
2022-09-23T06:20:28.971Z,100955.31
2022-09-23T06:22:56.418Z,100959.75
2022-09-23T06:25:23.088Z,100960.62
2022-09-23T06:27:54.428Z,100964.12
2022-09-23T06:30:25.646Z,100961.47
2022-09-23T06:32:53.978Z,100962.34
2022-09-23T06:35:27.720Z,100957.06
2022-09-23T06:37:54.945Z,100956.09
2022-09-23T06:40:24.860Z,100960.41
2022-09-23T06:42:58.856Z,100961.28
2022-09-23T06:45:26.262Z,100957.69
2022-09-23T06:48:02.114Z,100968.16
2022-09-23T06:50:29.152Z,100962.00
2022-09-23T06:52:56.265Z,100960.19
2022-09-23T06:55:26.682Z,100974.22
2022-09-23T06:57:53.697Z,100971.56
2022-09-23T07:00:22.615Z,100975.91
2022-09-23T07:02:49.459Z,100975.91
2022-09-23T07:05:17.653Z,100972.34
2022-09-23T07:07:44.671Z,100969.63
2022-09-23T07:10:11.506Z,100970.50
2022-09-23T07:12:38.173Z,100980.44
2022-09-23T07:15:05.023Z,100976.50
2022-09-23T07:17:32.224Z,100977.72
2022-09-23T07:19:58.825Z,100972.87
2022-09-23T07:22:25.753Z,100972.25
2022-09-23T07:24:55.942Z,100979.47
2022-09-23T07:27:26.193Z,100990.06
2022-09-23T07:29:53.064Z,100975.22
2022-09-23T07:32:19.904Z,100981.47
2022-09-23T07:34:47.274Z,100976.16
2022-09-23T07:37:14.756Z,100983.19
2022-09-23T07:39:44.465Z,100984.03
2022-09-23T07:42:15.532Z,100976.22
2022-09-23T07:44:45.318Z,100978.91
2022-09-23T07:47:15.724Z,100977.09
2022-09-23T07:49:42.279Z,100981.66
2022-09-23T07:52:08.855Z,100976.31
2022-09-23T07:54:35.726Z,100973.72
2022-09-23T07:57:02.299Z,100974.66
2022-09-23T07:59:31.481Z,100971.09
2022-09-23T08:01:58.101Z,100985.16
2022-09-23T08:04:29.716Z,100970.22
2022-09-23T08:06:58.017Z,100980.72
2022-09-23T08:09:26.648Z,100974.59
2022-09-23T08:11:53.340Z,100980.81
2022-09-23T08:14:20.112Z,100978.03
2022-09-23T08:16:47.662Z,100971.81
2022-09-23T08:19:17.674Z,100979.72
2022-09-23T08:21:46.707Z,100978.88
2022-09-23T08:24:20.395Z,100966.50
2022-09-23T08:26:47.513Z,100972.66
2022-09-23T08:29:16.488Z,100973.47
2022-09-23T08:31:43.238Z,100967.31
2022-09-23T08:34:09.921Z,100976.09
2022-09-23T08:36:38.742Z,100964.66
2022-09-23T08:39:05.567Z,100968.09
2022-09-23T08:41:58.495Z,100967.19
2022-09-23T08:44:27.113Z,100964.47
2022-09-23T08:47:11.480Z,100962.59
2022-09-23T08:50:19.884Z,100955.37
2022-09-23T08:52:57.073Z,100963.19
2022-09-23T08:55:44.623Z,100958.69
2022-09-23T08:58:39.385Z,100959.47
2022-09-23T09:01:26.682Z,100958.47
2022-09-23T09:04:16.245Z,100953.06
2022-09-23T09:06:55.903Z,100966.19
2022-09-23T09:10:11.746Z,100956.41
2022-09-23T09:12:49.400Z,100960.72
2022-09-23T09:15:18.743Z,100957.06
2022-09-23T09:18:11.557Z,100960.53
2022-09-23T09:20:59.837Z,100956.03
2022-09-23T09:23:38.996Z,100952.41
2022-09-23T09:26:05.956Z,100964.62
2022-09-23T09:28:38.841Z,100952.25
2022-09-23T09:31:28.167Z,100952.19
2022-09-23T09:34:07.177Z,100956.47
2022-09-23T09:37:01.303Z,100946.66
2022-09-23T09:39:39.391Z,100949.25
2022-09-23T09:42:06.514Z,100942.13
2022-09-23T09:45:01.820Z,100942.97
2022-09-23T09:47:28.692Z,100939.31
2022-09-23T09:50:06.203Z,100935.72
2022-09-23T09:52:33.041Z,100931.28
2022-09-23T09:55:26.589Z,100932.09
2022-09-23T09:58:01.719Z,100928.56
2022-09-23T10:00:28.394Z,100927.63
2022-09-23T10:03:01.419Z,100922.25
2022-09-23T10:05:34.650Z,100924.87
2022-09-23T10:08:35.644Z,100912.44
2022-09-23T10:11:20.891Z,100921.19
2022-09-23T10:14:17.820Z,100919.44
2022-09-23T10:16:45.068Z,100915.88
2022-09-23T10:19:21.625Z,100915.03
2022-09-23T10:21:52.268Z,100918.50
2022-09-23T10:24:23.662Z,100913.16
2022-09-23T10:27:09.793Z,100913.09
2022-09-23T10:29:41.066Z,100906.78
2022-09-23T10:32:22.885Z,100904.13
2022-09-23T10:35:09.282Z,100913.00
2022-09-23T10:37:43.044Z,100910.44
2022-09-23T10:40:52.698Z,100903.47
2022-09-23T10:43:44.104Z,100901.75
2022-09-23T10:46:39.537Z,100908.84
2022-09-23T10:49:43.983Z,100901.84
2022-09-23T10:52:31.943Z,100898.34
2022-09-23T10:55:10.806Z,100901.00
2022-09-23T10:57:56.851Z,100896.56
2022-09-23T11:00:32.083Z,100891.16
2022-09-23T11:03:26.487Z,100890.19
2022-09-23T11:06:14.419Z,100881.37
2022-09-23T11:09:06.935Z,100884.03
2022-09-23T11:12:21.505Z,100878.72
2022-09-23T11:14:54.425Z,100875.16
2022-09-23T11:17:27.028Z,100876.00
2022-09-23T11:20:23.390Z,100876.00
2022-09-23T11:23:24.008Z,100875.22
2022-09-23T11:26:32.202Z,100868.13
2022-09-23T11:29:12.296Z,100866.34
2022-09-23T11:32:02.965Z,100855.75
2022-09-23T11:34:54.336Z,100852.25
2022-09-23T11:37:27.732Z,100844.38
2022-09-23T11:39:57.114Z,100847.00
2022-09-23T11:42:29.624Z,100850.53
2022-09-23T11:44:59.323Z,100842.66
2022-09-23T11:47:32.849Z,100844.38
2022-09-23T11:50:35.567Z,100843.50
2022-09-23T11:53:23.019Z,100839.06
2022-09-23T11:55:58.456Z,100832.00
2022-09-23T11:58:30.702Z,100832.84
2022-09-23T12:01:09.419Z,100832.84
2022-09-23T12:04:16.709Z,100836.34
2022-09-23T12:06:48.243Z,100834.56
2022-09-23T12:09:36.002Z,100826.56
2022-09-23T12:12:25.044Z,100834.50
2022-09-23T12:15:02.114Z,100826.53
2022-09-23T12:17:54.451Z,100820.31
2022-09-23T12:20:41.500Z,100812.34
2022-09-23T12:23:26.699Z,100812.34
2022-09-23T12:25:56.426Z,100814.09
2022-09-23T12:28:26.313Z,100809.66
2022-09-23T12:30:54.746Z,100806.09
2022-09-23T12:33:22.528Z,100803.44
2022-09-23T12:35:49.106Z,100803.37
2022-09-23T12:38:20.412Z,100800.75
2022-09-23T12:40:47.033Z,100798.09
2022-09-23T12:43:34.642Z,100789.22
2022-09-23T12:46:18.410Z,100789.22
2022-09-23T12:49:00.011Z,100795.38
2022-09-23T12:51:30.857Z,100793.59
2022-09-23T12:54:18.511Z,100787.41
2022-09-23T12:56:54.244Z,100776.81
2022-09-23T12:59:31.627Z,100776.81
2022-09-23T13:01:58.466Z,100772.28
2022-09-23T13:05:01.984Z,100774.09
2022-09-23T13:07:33.736Z,100771.38
2022-09-23T13:10:14.882Z,100764.28
2022-09-23T13:12:42.022Z,100764.28
2022-09-23T13:15:42.340Z,100765.13
2022-09-23T13:18:21.087Z,100766.94
2022-09-23T13:20:48.838Z,100766.06
2022-09-23T13:23:33.592Z,100769.53
2022-09-23T13:26:01.635Z,100760.75
2022-09-23T13:28:34.416Z,100764.28
2022-09-23T13:31:05.955Z,100766.91
2022-09-23T13:33:50.564Z,100765.09
2022-09-23T13:36:18.722Z,100765.97
2022-09-23T13:38:47.045Z,100762.47
2022-09-23T13:41:22.388Z,100759.75
2022-09-23T13:43:49.621Z,100752.72
2022-09-23T13:46:22.072Z,100752.66
2022-09-23T13:48:50.836Z,100757.09
2022-09-23T13:51:27.894Z,100751.78
2022-09-23T13:53:55.967Z,100755.31
2022-09-23T13:56:22.723Z,100745.56
2022-09-23T13:58:49.291Z,100750.88
2022-09-23T14:01:27.551Z,100745.56
2022-09-23T14:03:54.238Z,100748.22
2022-09-23T14:06:20.820Z,100743.78
2022-09-23T14:08:48.832Z,100745.53
2022-09-23T14:11:40.267Z,100741.09
2022-09-23T14:14:08.023Z,100737.59
2022-09-23T14:16:38.989Z,100736.66
2022-09-23T14:19:07.894Z,100732.22
2022-09-23T14:21:39.020Z,100735.72
2022-09-23T14:24:33.783Z,100727.84
2022-09-23T14:27:15.746Z,100726.91
2022-09-23T14:29:44.188Z,100722.56
2022-09-23T14:32:14.648Z,100725.13
2022-09-23T14:34:46.837Z,100720.69
2022-09-23T14:37:45.197Z,100726.91
2022-09-23T14:40:17.238Z,100722.47
2022-09-23T14:42:48.860Z,100728.63
2022-09-23T14:45:20.778Z,100723.34
2022-09-23T14:47:52.046Z,100718.03
2022-09-23T14:50:48.695Z,100721.56
2022-09-23T14:53:26.830Z,100715.41
2022-09-23T14:55:59.659Z,100712.75
2022-09-23T14:58:28.577Z,100711.81
2022-09-23T15:00:57.265Z,100704.81
2022-09-23T15:03:23.944Z,100711.81
2022-09-23T15:05:51.557Z,100706.53
2022-09-23T15:08:20.205Z,100708.31
2022-09-23T15:10:46.779Z,100709.16
2022-09-23T15:13:24.232Z,100706.53
2022-09-23T15:15:53.926Z,100702.16
2022-09-23T15:18:22.633Z,100693.28
2022-09-23T15:20:56.345Z,100701.22
2022-09-23T15:23:52.988Z,100695.06
2022-09-23T15:26:21.636Z,100699.44
2022-09-23T15:28:48.662Z,100703.88
2022-09-23T15:31:19.398Z,100695.94
2022-09-23T15:33:49.869Z,100703.88
2022-09-23T15:36:20.649Z,100693.28
2022-09-23T15:38:47.389Z,100698.56
2022-09-23T15:41:14.424Z,100695.94
2022-09-23T15:43:44.602Z,100684.44
2022-09-23T15:46:22.233Z,100680.87
2022-09-23T15:49:00.937Z,100684.44
2022-09-23T15:51:27.885Z,100686.19
2022-09-23T15:53:55.438Z,100691.47
2022-09-23T15:56:22.757Z,100693.28
2022-09-23T15:58:49.372Z,100690.63
2022-09-23T16:01:19.548Z,100689.72
2022-09-23T16:03:46.143Z,100688.84
2022-09-23T16:06:13.468Z,100694.13
2022-09-23T16:08:42.200Z,100696.78
2022-09-23T16:11:19.485Z,100689.72
2022-09-23T16:13:46.189Z,100695.03
2022-09-23T16:16:13.019Z,100693.22
2022-09-23T16:18:44.606Z,100691.47
2022-09-23T16:21:12.409Z,100696.78
2022-09-23T16:23:41.236Z,100700.31
2022-09-23T16:26:15.299Z,100699.44
2022-09-23T16:28:42.228Z,100700.31
2022-09-23T16:31:09.483Z,100699.44
2022-09-23T16:33:36.086Z,100702.09
2022-09-23T16:36:02.760Z,100697.69
2022-09-23T16:38:29.611Z,100695.03
2022-09-23T16:41:00.434Z,100700.31
2022-09-23T16:43:31.601Z,100693.22
2022-09-23T16:45:58.568Z,100695.03
2022-09-23T16:48:25.179Z,100704.72
2022-09-23T16:50:54.946Z,100701.22
2022-09-23T16:53:21.531Z,100704.72
2022-09-23T16:55:48.071Z,100699.44
2022-09-23T16:58:14.633Z,100703.88
2022-09-23T17:00:59.868Z,100699.44
2022-09-23T17:03:41.674Z,100710.03
2022-09-23T17:06:13.003Z,100701.19
2022-09-23T17:08:42.796Z,100695.03
2022-09-23T17:11:10.752Z,100695.03
2022-09-23T17:13:39.612Z,100700.31
2022-09-23T17:16:06.431Z,100696.78
2022-09-23T17:18:33.064Z,100695.94
2022-09-23T17:21:06.609Z,100698.53
2022-09-23T17:23:35.189Z,100700.31
2022-09-23T17:26:02.267Z,100704.72
2022-09-23T17:28:29.135Z,100707.38
2022-09-23T17:30:59.402Z,100708.28
2022-09-23T17:33:26.829Z,100699.44
2022-09-23T17:35:54.565Z,100708.28
2022-09-23T17:38:28.897Z,100705.63
2022-09-23T17:40:57.033Z,100710.03
2022-09-23T17:43:26.589Z,100713.56
2022-09-23T17:45:54.559Z,100705.63
2022-09-23T17:48:25.619Z,100708.28
2022-09-23T17:50:58.434Z,100712.69
2022-09-23T17:53:25.955Z,100707.38
2022-09-23T17:55:59.918Z,100713.56
2022-09-23T17:58:33.446Z,100721.50
2022-09-23T18:01:00.761Z,100717.06
2022-09-23T18:03:28.700Z,100724.16
2022-09-23T18:05:55.547Z,100716.22
2022-09-23T18:08:22.166Z,100716.22
2022-09-23T18:10:48.738Z,100715.31
2022-09-23T18:13:15.303Z,100718.87
2022-09-23T18:15:41.946Z,100718.87
2022-09-23T18:18:08.484Z,100726.75
2022-09-23T18:20:35.070Z,100720.59
2022-09-23T18:23:01.671Z,100728.53
2022-09-23T18:25:39.240Z,100725.03
2022-09-23T18:28:06.654Z,100730.31
2022-09-23T18:30:33.581Z,100732.03
2022-09-23T18:33:00.257Z,100727.66
2022-09-23T18:35:28.424Z,100725.88
2022-09-23T18:37:55.429Z,100720.59
2022-09-23T18:40:22.104Z,100731.13
2022-09-23T18:42:49.707Z,100733.84
2022-09-23T18:45:16.237Z,100728.53
2022-09-23T18:48:01.579Z,100729.47
2022-09-23T18:50:40.807Z,100736.47
2022-09-23T18:53:08.201Z,100733.84
2022-09-23T18:55:37.965Z,100734.75
2022-09-23T18:58:07.352Z,100732.97
2022-09-23T19:00:34.099Z,100732.97
2022-09-23T19:03:00.725Z,100732.09
2022-09-23T19:05:27.308Z,100737.34
2022-09-23T19:07:53.909Z,100734.75
2022-09-23T19:10:20.600Z,100732.09
2022-09-23T19:12:47.235Z,100743.56
2022-09-23T19:15:14.221Z,100724.16
2022-09-23T19:17:40.922Z,100732.97
2022-09-23T19:20:08.040Z,100728.53
2022-09-23T19:22:34.865Z,100733.84
2022-09-23T19:25:01.504Z,100741.78
2022-09-23T19:27:28.100Z,100739.13
2022-09-23T19:29:55.012Z,100741.78
2022-09-23T19:32:27.044Z,100739.13
2022-09-23T19:34:53.664Z,100738.28
2022-09-23T19:37:20.364Z,100735.63
2022-09-23T19:39:47.687Z,100736.47
2022-09-23T19:42:14.378Z,100727.66
2022-09-23T19:44:41.025Z,100735.56
2022-09-23T19:47:07.792Z,100729.47
2022-09-23T19:49:34.422Z,100727.66
2022-09-23T19:52:01.100Z,100731.19
2022-09-23T19:54:27.855Z,100733.84
2022-09-23T19:56:54.527Z,100738.28
2022-09-23T19:59:21.395Z,100738.28
2022-09-23T20:01:48.700Z,100740.91
2022-09-23T20:04:16.060Z,100739.13
2022-09-23T20:06:42.752Z,100742.63
2022-09-23T20:09:09.329Z,100734.69
2022-09-23T20:11:36.130Z,100738.28
2022-09-23T20:14:04.430Z,100733.84
2022-09-23T20:16:32.789Z,100731.19
2022-09-23T20:18:59.899Z,100732.03
2022-09-23T20:21:26.755Z,100735.63
2022-09-23T20:23:53.300Z,100733.84
2022-09-23T20:26:38.347Z,100740.00
2022-09-23T20:29:05.137Z,100733.84
2022-09-23T20:31:32.282Z,100732.97
2022-09-23T20:33:58.901Z,100728.53
2022-09-23T20:36:28.846Z,100722.38
2022-09-23T20:38:56.098Z,100733.88
2022-09-23T20:41:22.784Z,100730.31
2022-09-23T20:43:54.075Z,100733.00
2022-09-23T20:46:25.437Z,100737.41
2022-09-23T20:48:52.161Z,100732.09
2022-09-23T20:51:18.696Z,100724.16
2022-09-23T20:53:47.851Z,100728.56
2022-09-23T20:56:14.905Z,100732.09
2022-09-23T20:58:41.638Z,100736.53
2022-09-23T21:01:11.578Z,100740.06
2022-09-23T21:03:39.592Z,100725.91
2022-09-23T21:06:07.006Z,100726.81
2022-09-23T21:08:34.177Z,100727.72
2022-09-23T21:11:04.852Z,100729.50
2022-09-23T21:13:31.906Z,100726.84
2022-09-23T21:16:05.698Z,100731.28
2022-09-23T21:18:32.289Z,100729.50
2022-09-23T21:20:59.471Z,100731.28
2022-09-23T21:23:27.255Z,100733.94
2022-09-23T21:26:19.295Z,100727.78
2022-09-23T21:28:50.503Z,100739.22
2022-09-23T21:31:26.023Z,100733.06
2022-09-23T21:33:56.787Z,100732.22
2022-09-23T21:36:24.582Z,100729.56
2022-09-23T21:38:51.449Z,100734.00
2022-09-23T21:41:18.037Z,100736.66
2022-09-23T21:43:44.789Z,100741.09
2022-09-23T21:46:13.483Z,100739.34
2022-09-23T21:48:41.197Z,100745.53
2022-09-23T21:51:13.287Z,100744.63
2022-09-23T21:53:40.317Z,100737.59
2022-09-23T21:56:11.077Z,100742.00
2022-09-23T21:58:39.676Z,100742.91
2022-09-23T22:01:20.146Z,100738.56
2022-09-23T22:03:54.960Z,100742.91
2022-09-23T22:06:23.116Z,100743.84
2022-09-23T22:08:50.963Z,100750.00
2022-09-23T22:11:38.706Z,100745.63
2022-09-23T22:14:07.369Z,100740.34
2022-09-23T22:16:34.370Z,100737.75
2022-09-23T22:19:01.241Z,100739.56
2022-09-23T22:21:29.245Z,100736.00
2022-09-23T22:24:02.759Z,100743.06
2022-09-23T22:26:31.334Z,100741.31
2022-09-23T22:29:19.532Z,100740.44
2022-09-23T22:32:04.996Z,100737.78
2022-09-23T22:34:48.950Z,100744.88
2022-09-23T22:37:18.900Z,100735.22
2022-09-23T22:39:45.586Z,100737.88
2022-09-23T22:42:13.113Z,100749.37
2022-09-23T22:44:42.034Z,100737.06
2022-09-23T22:47:11.411Z,100739.72
2022-09-23T22:49:40.133Z,100741.47
2022-09-23T22:52:11.418Z,100740.62
2022-09-23T22:54:38.505Z,100737.09
2022-09-23T22:57:08.334Z,100739.75
2022-09-23T22:59:35.523Z,100742.41
2022-09-23T23:02:02.948Z,100740.69
2022-09-23T23:04:29.855Z,100740.69
2022-09-23T23:06:57.299Z,100741.63
2022-09-23T23:09:23.871Z,100732.81
2022-09-23T23:11:50.556Z,100740.75
2022-09-23T23:14:17.922Z,100738.09
2022-09-23T23:16:46.297Z,100730.19
2022-09-23T23:19:14.629Z,100741.66
2022-09-23T23:21:43.430Z,100736.41
2022-09-23T23:24:20.720Z,100735.56
2022-09-23T23:26:47.640Z,100732.06
2022-09-23T23:29:15.397Z,100740.00
2022-09-23T23:31:42.030Z,100738.22
2022-09-23T23:34:11.935Z,100725.03
2022-09-23T23:36:38.691Z,100729.47
2022-09-23T23:39:05.447Z,100729.47
2022-09-23T23:41:32.026Z,100729.47
2022-09-23T23:43:59.486Z,100727.72
2022-09-23T23:46:27.624Z,100726.88
2022-09-23T23:48:54.695Z,100730.44
2022-09-23T23:51:21.358Z,100729.56
2022-09-23T23:53:48.295Z,100733.09
2022-09-23T23:56:18.986Z,100733.16
2022-09-23T23:58:45.568Z,100735.81
